sensor_id;sensor_type;location;lat;lon;timestamp;temperature;humidity
56103;DHT22;41970;48.774;9.280;2022-08-01T00:00:38;22.40;76.40
56103;DHT22;41970;48.774;9.280;2022-08-01T00:03:04;22.50;76.30
56103;DHT22;41970;48.774;9.280;2022-08-01T00:05:30;22.50;76.10
56103;DHT22;41970;48.774;9.280;2022-08-01T00:07:56;22.60;76.30
56103;DHT22;41970;48.774;9.280;2022-08-01T00:10:22;22.50;76.30
56103;DHT22;41970;48.774;9.280;2022-08-01T00:12:48;22.40;76.80
56103;DHT22;41970;48.774;9.280;2022-08-01T00:15:15;22.40;77.20
56103;DHT22;41970;48.774;9.280;2022-08-01T00:17:42;22.30;77.20
56103;DHT22;41970;48.774;9.280;2022-08-01T00:20:12;22.30;77.40
56103;DHT22;41970;48.774;9.280;2022-08-01T00:22:38;22.30;77.40
56103;DHT22;41970;48.774;9.280;2022-08-01T00:25:05;22.30;77.70
56103;DHT22;41970;48.774;9.280;2022-08-01T00:27:32;22.10;78.30
56103;DHT22;41970;48.774;9.280;2022-08-01T00:29:58;22.20;78.50
56103;DHT22;41970;48.774;9.280;2022-08-01T00:32:24;22.20;78.30
56103;DHT22;41970;48.774;9.280;2022-08-01T00:34:50;22.20;78.60
56103;DHT22;41970;48.774;9.280;2022-08-01T00:37:16;22.20;78.70
56103;DHT22;41970;48.774;9.280;2022-08-01T00:39:42;22.10;78.90
56103;DHT22;41970;48.774;9.280;2022-08-01T00:42:10;22.10;78.90
56103;DHT22;41970;48.774;9.280;2022-08-01T00:44:36;22.10;79.10
56103;DHT22;41970;48.774;9.280;2022-08-01T00:47:03;22.00;79.70
56103;DHT22;41970;48.774;9.280;2022-08-01T00:49:30;22.00;80.00
56103;DHT22;41970;48.774;9.280;2022-08-01T00:51:56;21.80;80.00
56103;DHT22;41970;48.774;9.280;2022-08-01T00:54:26;21.80;80.60
56103;DHT22;41970;48.774;9.280;2022-08-01T00:56:53;21.80;80.60
56103;DHT22;41970;48.774;9.280;2022-08-01T00:59:21;21.60;81.50
56103;DHT22;41970;48.774;9.280;2022-08-01T01:01:48;21.70;81.40
56103;DHT22;41970;48.774;9.280;2022-08-01T01:04:14;21.60;82.50
56103;DHT22;41970;48.774;9.280;2022-08-01T01:15:04;21.60;82.50
56103;DHT22;41970;48.774;9.280;2022-08-01T01:17:41;21.30;83.30
56103;DHT22;41970;48.774;9.280;2022-08-01T01:20:10;21.30;83.90
56103;DHT22;41970;48.774;9.280;2022-08-01T01:25:40;21.40;84.20
56103;DHT22;41970;48.774;9.280;2022-08-01T01:28:27;21.40;84.40
56103;DHT22;41970;48.774;9.280;2022-08-01T01:30:57;21.20;84.60
56103;DHT22;41970;48.774;9.280;2022-08-01T01:33:25;21.20;85.20
56103;DHT22;41970;48.774;9.280;2022-08-01T01:35:59;21.30;85.00
56103;DHT22;41970;48.774;9.280;2022-08-01T01:38:28;21.30;84.80
56103;DHT22;41970;48.774;9.280;2022-08-01T01:40:56;21.00;85.90
56103;DHT22;41970;48.774;9.280;2022-08-01T01:43:23;20.90;86.60
56103;DHT22;41970;48.774;9.280;2022-08-01T01:45:49;20.80;87.00
56103;DHT22;41970;48.774;9.280;2022-08-01T01:48:18;20.90;86.90
56103;DHT22;41970;48.774;9.280;2022-08-01T01:50:49;21.00;86.60
56103;DHT22;41970;48.774;9.280;2022-08-01T01:53:18;20.90;86.90
56103;DHT22;41970;48.774;9.280;2022-08-01T01:55:46;20.80;87.60
56103;DHT22;41970;48.774;9.280;2022-08-01T01:58:13;20.90;88.10
56103;DHT22;41970;48.774;9.280;2022-08-01T02:00:42;20.90;87.70
56103;DHT22;41970;48.774;9.280;2022-08-01T02:03:11;21.00;87.90
56103;DHT22;41970;48.774;9.280;2022-08-01T02:05:38;20.90;88.20
56103;DHT22;41970;48.774;9.280;2022-08-01T02:08:05;21.00;88.20
56103;DHT22;41970;48.774;9.280;2022-08-01T02:10:32;21.00;88.30
56103;DHT22;41970;48.774;9.280;2022-08-01T02:13:02;21.00;88.40
56103;DHT22;41970;48.774;9.280;2022-08-01T02:15:30;21.00;88.80
56103;DHT22;41970;48.774;9.280;2022-08-01T02:17:57;21.00;89.00
56103;DHT22;41970;48.774;9.280;2022-08-01T02:20:28;20.90;89.50
56103;DHT22;41970;48.774;9.280;2022-08-01T02:23:07;20.70;90.30
56103;DHT22;41970;48.774;9.280;2022-08-01T02:25:40;20.60;90.60
56103;DHT22;41970;48.774;9.280;2022-08-01T02:28:10;20.60;90.70
56103;DHT22;41970;48.774;9.280;2022-08-01T02:30:41;20.60;90.70
56103;DHT22;41970;48.774;9.280;2022-08-01T02:33:20;20.80;90.70
56103;DHT22;41970;48.774;9.280;2022-08-01T02:35:51;20.80;90.60
56103;DHT22;41970;48.774;9.280;2022-08-01T02:38:22;20.90;90.70
56103;DHT22;41970;48.774;9.280;2022-08-01T02:40:50;21.00;90.60
56103;DHT22;41970;48.774;9.280;2022-08-01T02:43:20;21.00;90.80
56103;DHT22;41970;48.774;9.280;2022-08-01T02:45:51;20.80;91.40
56103;DHT22;41970;48.774;9.280;2022-08-01T02:48:19;20.60;91.60
56103;DHT22;41970;48.774;9.280;2022-08-01T02:50:51;20.50;92.10
56103;DHT22;41970;48.774;9.280;2022-08-01T02:53:20;20.40;92.30
56103;DHT22;41970;48.774;9.280;2022-08-01T02:55:48;20.50;92.20
56103;DHT22;41970;48.774;9.280;2022-08-01T02:58:16;20.50;92.30
56103;DHT22;41970;48.774;9.280;2022-08-01T03:00:44;20.60;92.10
56103;DHT22;41970;48.774;9.280;2022-08-01T03:03:12;20.60;92.30
56103;DHT22;41970;48.774;9.280;2022-08-01T03:05:39;20.60;92.40
56103;DHT22;41970;48.774;9.280;2022-08-01T03:08:07;20.40;92.80
56103;DHT22;41970;48.774;9.280;2022-08-01T03:10:37;20.40;92.90
56103;DHT22;41970;48.774;9.280;2022-08-01T03:13:06;20.50;92.80
56103;DHT22;41970;48.774;9.280;2022-08-01T03:15:36;20.50;93.00
56103;DHT22;41970;48.774;9.280;2022-08-01T03:18:05;20.40;93.20
56103;DHT22;41970;48.774;9.280;2022-08-01T03:20:33;20.30;93.30
56103;DHT22;41970;48.774;9.280;2022-08-01T03:23:04;20.30;93.30
56103;DHT22;41970;48.774;9.280;2022-08-01T03:25:32;20.50;93.20
56103;DHT22;41970;48.774;9.280;2022-08-01T03:28:01;20.50;93.20
56103;DHT22;41970;48.774;9.280;2022-08-01T03:30:29;20.50;93.30
56103;DHT22;41970;48.774;9.280;2022-08-01T03:32:57;20.30;93.60
56103;DHT22;41970;48.774;9.280;2022-08-01T03:35:27;20.10;94.20
56103;DHT22;41970;48.774;9.280;2022-08-01T03:37:55;19.90;94.60
56103;DHT22;41970;48.774;9.280;2022-08-01T03:40:37;19.80;94.90
56103;DHT22;41970;48.774;9.280;2022-08-01T03:43:07;19.90;94.90
56103;DHT22;41970;48.774;9.280;2022-08-01T03:45:40;20.00;94.70
56103;DHT22;41970;48.774;9.280;2022-08-01T03:48:16;20.00;94.80
56103;DHT22;41970;48.774;9.280;2022-08-01T03:50:47;20.10;94.90
56103;DHT22;41970;48.774;9.280;2022-08-01T03:53:14;20.10;94.60
56103;DHT22;41970;48.774;9.280;2022-08-01T03:55:42;20.20;94.60
56103;DHT22;41970;48.774;9.280;2022-08-01T03:58:09;20.20;94.60
56103;DHT22;41970;48.774;9.280;2022-08-01T04:00:37;20.20;94.80
56103;DHT22;41970;48.774;9.280;2022-08-01T04:03:08;20.20;94.90
56103;DHT22;41970;48.774;9.280;2022-08-01T04:05:34;20.20;94.90
56103;DHT22;41970;48.774;9.280;2022-08-01T04:08:01;20.20;95.00
56103;DHT22;41970;48.774;9.280;2022-08-01T04:10:29;20.10;95.20
56103;DHT22;41970;48.774;9.280;2022-08-01T04:12:55;20.00;95.40
56103;DHT22;41970;48.774;9.280;2022-08-01T04:15:21;20.00;95.60
56103;DHT22;41970;48.774;9.280;2022-08-01T04:17:47;20.00;95.70
56103;DHT22;41970;48.774;9.280;2022-08-01T04:20:14;20.10;95.50
56103;DHT22;41970;48.774;9.280;2022-08-01T04:22:41;20.20;95.40
56103;DHT22;41970;48.774;9.280;2022-08-01T04:25:14;20.10;95.70
56103;DHT22;41970;48.774;9.280;2022-08-01T04:27:44;20.10;96.30
56103;DHT22;41970;48.774;9.280;2022-08-01T04:30:11;20.10;96.00
56103;DHT22;41970;48.774;9.280;2022-08-01T04:32:42;20.00;96.00
56103;DHT22;41970;48.774;9.280;2022-08-01T04:35:12;20.00;96.30
56103;DHT22;41970;48.774;9.280;2022-08-01T04:37:44;20.00;96.50
56103;DHT22;41970;48.774;9.280;2022-08-01T04:40:11;20.00;96.70
56103;DHT22;41970;48.774;9.280;2022-08-01T04:42:37;19.90;97.10
56103;DHT22;41970;48.774;9.280;2022-08-01T04:45:04;19.90;97.40
56103;DHT22;41970;48.774;9.280;2022-08-01T04:47:30;19.90;97.80
56103;DHT22;41970;48.774;9.280;2022-08-01T04:49:57;19.80;98.00
56103;DHT22;41970;48.774;9.280;2022-08-01T04:52:23;19.90;97.90
56103;DHT22;41970;48.774;9.280;2022-08-01T04:54:49;20.00;97.80
56103;DHT22;41970;48.774;9.280;2022-08-01T04:57:15;20.20;97.60
56103;DHT22;41970;48.774;9.280;2022-08-01T04:59:43;20.20;97.90
56103;DHT22;41970;48.774;9.280;2022-08-01T05:02:14;20.00;98.20
56103;DHT22;41970;48.774;9.280;2022-08-01T05:04:42;20.10;98.50
56103;DHT22;41970;48.774;9.280;2022-08-01T05:07:09;20.10;98.60
56103;DHT22;41970;48.774;9.280;2022-08-01T05:09:36;20.10;98.60
56103;DHT22;41970;48.774;9.280;2022-08-01T05:12:03;20.10;98.90
56103;DHT22;41970;48.774;9.280;2022-08-01T05:14:29;20.10;99.00
56103;DHT22;41970;48.774;9.280;2022-08-01T05:17:03;20.10;99.30
56103;DHT22;41970;48.774;9.280;2022-08-01T05:19:30;20.10;99.20
56103;DHT22;41970;48.774;9.280;2022-08-01T05:22:00;20.20;99.50
56103;DHT22;41970;48.774;9.280;2022-08-01T05:24:27;20.20;99.60
56103;DHT22;41970;48.774;9.280;2022-08-01T05:26:57;20.20;99.50
56103;DHT22;41970;48.774;9.280;2022-08-01T05:29:23;20.30;99.30
56103;DHT22;41970;48.774;9.280;2022-08-01T05:31:50;20.40;99.10
56103;DHT22;41970;48.774;9.280;2022-08-01T05:34:16;20.50;99.10
56103;DHT22;41970;48.774;9.280;2022-08-01T05:36:43;20.60;99.00
56103;DHT22;41970;48.774;9.280;2022-08-01T05:39:09;20.80;99.10
56103;DHT22;41970;48.774;9.280;2022-08-01T05:41:36;20.90;98.90
56103;DHT22;41970;48.774;9.280;2022-08-01T05:44:03;21.10;98.70
56103;DHT22;41970;48.774;9.280;2022-08-01T05:46:29;21.30;98.10
56103;DHT22;41970;48.774;9.280;2022-08-01T05:48:57;21.40;97.80
56103;DHT22;41970;48.774;9.280;2022-08-01T05:51:23;21.50;97.80
56103;DHT22;41970;48.774;9.280;2022-08-01T05:53:49;21.70;97.50
56103;DHT22;41970;48.774;9.280;2022-08-01T05:56:15;21.80;97.30
56103;DHT22;41970;48.774;9.280;2022-08-01T05:58:40;21.80;96.70
56103;DHT22;41970;48.774;9.280;2022-08-01T06:01:06;22.00;96.40
56103;DHT22;41970;48.774;9.280;2022-08-01T06:03:32;22.10;96.30
56103;DHT22;41970;48.774;9.280;2022-08-01T06:06:00;22.20;96.00
56103;DHT22;41970;48.774;9.280;2022-08-01T06:08:26;22.30;95.10
56103;DHT22;41970;48.774;9.280;2022-08-01T06:10:52;22.40;94.80
56103;DHT22;41970;48.774;9.280;2022-08-01T06:13:18;22.40;94.90
56103;DHT22;41970;48.774;9.280;2022-08-01T06:15:47;22.50;94.90
56103;DHT22;41970;48.774;9.280;2022-08-01T06:18:13;22.60;94.70
56103;DHT22;41970;48.774;9.280;2022-08-01T06:20:39;22.70;94.50
56103;DHT22;41970;48.774;9.280;2022-08-01T06:23:06;22.80;94.30
56103;DHT22;41970;48.774;9.280;2022-08-01T06:25:32;22.80;93.90
56103;DHT22;41970;48.774;9.280;2022-08-01T06:27:59;22.90;93.60
56103;DHT22;41970;48.774;9.280;2022-08-01T06:30:25;23.00;93.40
56103;DHT22;41970;48.774;9.280;2022-08-01T06:32:51;23.10;93.30
56103;DHT22;41970;48.774;9.280;2022-08-01T06:35:18;23.00;93.50
56103;DHT22;41970;48.774;9.280;2022-08-01T06:37:43;23.10;93.60
56103;DHT22;41970;48.774;9.280;2022-08-01T06:40:13;23.20;93.40
56103;DHT22;41970;48.774;9.280;2022-08-01T06:42:39;23.30;93.10
56103;DHT22;41970;48.774;9.280;2022-08-01T06:45:06;23.40;92.70
56103;DHT22;41970;48.774;9.280;2022-08-01T06:47:32;23.50;92.60
56103;DHT22;41970;48.774;9.280;2022-08-01T06:49:58;23.60;92.50
56103;DHT22;41970;48.774;9.280;2022-08-01T06:52:25;23.60;92.30
56103;DHT22;41970;48.774;9.280;2022-08-01T06:54:51;23.70;93.00
56103;DHT22;41970;48.774;9.280;2022-08-01T06:57:17;23.80;92.40
56103;DHT22;41970;48.774;9.280;2022-08-01T06:59:43;24.10;92.40
56103;DHT22;41970;48.774;9.280;2022-08-01T07:02:09;24.30;91.90
56103;DHT22;41970;48.774;9.280;2022-08-01T07:04:35;24.50;91.60
56103;DHT22;41970;48.774;9.280;2022-08-01T07:07:01;24.70;90.90
56103;DHT22;41970;48.774;9.280;2022-08-01T07:09:27;24.90;90.80
56103;DHT22;41970;48.774;9.280;2022-08-01T07:11:53;25.10;90.40
56103;DHT22;41970;48.774;9.280;2022-08-01T07:14:20;25.40;89.70
56103;DHT22;41970;48.774;9.280;2022-08-01T07:16:47;25.50;89.40
56103;DHT22;41970;48.774;9.280;2022-08-01T07:19:13;25.40;88.60
56103;DHT22;41970;48.774;9.280;2022-08-01T07:21:39;25.30;89.10
56103;DHT22;41970;48.774;9.280;2022-08-01T07:24:10;25.50;87.60
56103;DHT22;41970;48.774;9.280;2022-08-01T07:26:38;25.80;87.30
56103;DHT22;41970;48.774;9.280;2022-08-01T07:29:04;26.00;87.10
56103;DHT22;41970;48.774;9.280;2022-08-01T07:31:30;26.30;85.40
56103;DHT22;41970;48.774;9.280;2022-08-01T07:33:57;26.60;84.20
56103;DHT22;41970;48.774;9.280;2022-08-01T07:36:22;26.90;83.40
56103;DHT22;41970;48.774;9.280;2022-08-01T07:38:48;27.10;82.40
56103;DHT22;41970;48.774;9.280;2022-08-01T07:41:15;27.70;80.90
56103;DHT22;41970;48.774;9.280;2022-08-01T07:43:41;28.00;78.50
56103;DHT22;41970;48.774;9.280;2022-08-01T07:46:06;28.30;77.60
56103;DHT22;41970;48.774;9.280;2022-08-01T07:48:32;28.50;77.90
56103;DHT22;41970;48.774;9.280;2022-08-01T07:50:59;28.60;76.10
56103;DHT22;41970;48.774;9.280;2022-08-01T07:53:25;28.60;75.70
56103;DHT22;41970;48.774;9.280;2022-08-01T07:55:51;28.60;75.00
56103;DHT22;41970;48.774;9.280;2022-08-01T07:58:17;28.30;75.30
56103;DHT22;41970;48.774;9.280;2022-08-01T08:00:43;28.20;75.10
56103;DHT22;41970;48.774;9.280;2022-08-01T08:03:09;28.10;75.70
56103;DHT22;41970;48.774;9.280;2022-08-01T08:05:35;28.10;76.70
56103;DHT22;41970;48.774;9.280;2022-08-01T08:08:05;28.20;76.30
56103;DHT22;41970;48.774;9.280;2022-08-01T08:10:31;28.10;77.20
56103;DHT22;41970;48.774;9.280;2022-08-01T08:12:57;28.30;76.90
56103;DHT22;41970;48.774;9.280;2022-08-01T08:15:23;28.40;75.60
56103;DHT22;41970;48.774;9.280;2022-08-01T08:17:49;28.20;75.30
56103;DHT22;41970;48.774;9.280;2022-08-01T08:20:15;28.30;75.30
56103;DHT22;41970;48.774;9.280;2022-08-01T08:22:41;28.40;76.40
56103;DHT22;41970;48.774;9.280;2022-08-01T08:25:08;28.50;74.60
56103;DHT22;41970;48.774;9.280;2022-08-01T08:27:34;28.50;73.10
56103;DHT22;41970;48.774;9.280;2022-08-01T08:30:00;28.20;73.80
56103;DHT22;41970;48.774;9.280;2022-08-01T08:32:26;27.90;74.60
56103;DHT22;41970;48.774;9.280;2022-08-01T08:34:52;27.90;75.20
56103;DHT22;41970;48.774;9.280;2022-08-01T08:37:18;28.10;74.50
56103;DHT22;41970;48.774;9.280;2022-08-01T08:39:44;28.20;74.50
56103;DHT22;41970;48.774;9.280;2022-08-01T08:42:13;28.50;75.50
56103;DHT22;41970;48.774;9.280;2022-08-01T08:44:41;28.80;72.70
56103;DHT22;41970;48.774;9.280;2022-08-01T08:47:07;29.10;72.80
56103;DHT22;41970;48.774;9.280;2022-08-01T08:49:35;29.20;71.60
56103;DHT22;41970;48.774;9.280;2022-08-01T08:52:02;29.10;71.80
56103;DHT22;41970;48.774;9.280;2022-08-01T08:54:29;29.00;71.20
56103;DHT22;41970;48.774;9.280;2022-08-01T08:56:56;28.70;72.20
56103;DHT22;41970;48.774;9.280;2022-08-01T08:59:23;28.50;73.00
56103;DHT22;41970;48.774;9.280;2022-08-01T09:01:52;28.40;73.10
56103;DHT22;41970;48.774;9.280;2022-08-01T09:04:20;28.20;73.40
56103;DHT22;41970;48.774;9.280;2022-08-01T09:06:48;28.00;74.60
56103;DHT22;41970;48.774;9.280;2022-08-01T09:09:14;28.20;75.90
56103;DHT22;41970;48.774;9.280;2022-08-01T09:11:39;28.30;73.40
56103;DHT22;41970;48.774;9.280;2022-08-01T09:14:15;28.50;73.10
56103;DHT22;41970;48.774;9.280;2022-08-01T09:17:18;28.70;73.40
56103;DHT22;41970;48.774;9.280;2022-08-01T09:19:53;28.80;73.20
56103;DHT22;41970;48.774;9.280;2022-08-01T09:22:22;28.80;72.20
56103;DHT22;41970;48.774;9.280;2022-08-01T09:25:06;28.70;72.70
56103;DHT22;41970;48.774;9.280;2022-08-01T09:27:33;28.50;71.70
56103;DHT22;41970;48.774;9.280;2022-08-01T09:30:16;28.20;72.60
56103;DHT22;41970;48.774;9.280;2022-08-01T09:32:59;28.10;72.80
56103;DHT22;41970;48.774;9.280;2022-08-01T09:35:27;27.90;73.00
56103;DHT22;41970;48.774;9.280;2022-08-01T09:38:18;27.90;74.60
56103;DHT22;41970;48.774;9.280;2022-08-01T09:40:59;28.10;73.60
56103;DHT22;41970;48.774;9.280;2022-08-01T09:43:27;28.40;73.50
56103;DHT22;41970;48.774;9.280;2022-08-01T09:45:56;28.20;72.90
56103;DHT22;41970;48.774;9.280;2022-08-01T09:48:23;28.20;73.40
56103;DHT22;41970;48.774;9.280;2022-08-01T09:50:50;28.10;73.10
56103;DHT22;41970;48.774;9.280;2022-08-01T09:53:17;28.20;73.20
56103;DHT22;41970;48.774;9.280;2022-08-01T09:55:44;28.10;73.00
56103;DHT22;41970;48.774;9.280;2022-08-01T09:58:13;28.20;73.30
56103;DHT22;41970;48.774;9.280;2022-08-01T10:00:39;28.10;73.10
56103;DHT22;41970;48.774;9.280;2022-08-01T10:03:25;27.80;73.00
56103;DHT22;41970;48.774;9.280;2022-08-01T10:05:52;27.80;74.10
56103;DHT22;41970;48.774;9.280;2022-08-01T10:08:19;27.90;74.20
56103;DHT22;41970;48.774;9.280;2022-08-01T10:11:08;28.10;74.30
56103;DHT22;41970;48.774;9.280;2022-08-01T10:13:34;28.20;73.80
56103;DHT22;41970;48.774;9.280;2022-08-01T10:16:01;28.50;73.10
56103;DHT22;41970;48.774;9.280;2022-08-01T10:18:31;28.50;72.30
56103;DHT22;41970;48.774;9.280;2022-08-01T10:21:01;28.70;72.70
56103;DHT22;41970;48.774;9.280;2022-08-01T10:23:33;28.70;72.30
56103;DHT22;41970;48.774;9.280;2022-08-01T10:26:00;28.70;72.60
56103;DHT22;41970;48.774;9.280;2022-08-01T10:28:31;28.60;71.40
56103;DHT22;41970;48.774;9.280;2022-08-01T10:31:00;28.50;71.90
56103;DHT22;41970;48.774;9.280;2022-08-01T10:33:31;28.60;72.10
56103;DHT22;41970;48.774;9.280;2022-08-01T10:35:57;28.50;70.40
56103;DHT22;41970;48.774;9.280;2022-08-01T10:38:23;28.40;70.50
56103;DHT22;41970;48.774;9.280;2022-08-01T10:40:50;28.40;71.10
56103;DHT22;41970;48.774;9.280;2022-08-01T10:43:18;28.40;70.10
56103;DHT22;41970;48.774;9.280;2022-08-01T10:45:44;28.40;70.70
56103;DHT22;41970;48.774;9.280;2022-08-01T10:48:43;28.50;72.30
56103;DHT22;41970;48.774;9.280;2022-08-01T10:51:10;28.50;70.60
56103;DHT22;41970;48.774;9.280;2022-08-01T10:53:46;28.70;69.80
56103;DHT22;41970;48.774;9.280;2022-08-01T10:56:13;28.80;69.40
56103;DHT22;41970;48.774;9.280;2022-08-01T10:58:42;28.80;69.30
56103;DHT22;41970;48.774;9.280;2022-08-01T11:03:41;28.60;69.80
56103;DHT22;41970;48.774;9.280;2022-08-01T11:06:15;28.40;70.00
56103;DHT22;41970;48.774;9.280;2022-08-01T11:08:42;28.20;70.40
56103;DHT22;41970;48.774;9.280;2022-08-01T11:11:16;28.10;70.80
56103;DHT22;41970;48.774;9.280;2022-08-01T11:14:04;27.90;72.40
56103;DHT22;41970;48.774;9.280;2022-08-01T11:16:36;27.90;71.30
56103;DHT22;41970;48.774;9.280;2022-08-01T11:19:04;27.90;71.70
56103;DHT22;41970;48.774;9.280;2022-08-01T11:27:31;28.00;70.60
56103;DHT22;41970;48.774;9.280;2022-08-01T11:32:56;28.10;70.30
56103;DHT22;41970;48.774;9.280;2022-08-01T11:35:23;28.20;69.20
56103;DHT22;41970;48.774;9.280;2022-08-01T11:37:52;28.50;68.90
56103;DHT22;41970;48.774;9.280;2022-08-01T11:42:50;28.60;68.80
56103;DHT22;41970;48.774;9.280;2022-08-01T11:45:16;28.50;68.20
56103;DHT22;41970;48.774;9.280;2022-08-01T11:47:49;28.50;68.40
56103;DHT22;41970;48.774;9.280;2022-08-01T11:50:34;28.50;68.20
56103;DHT22;41970;48.774;9.280;2022-08-01T11:53:06;28.50;68.40
56103;DHT22;41970;48.774;9.280;2022-08-01T11:55:33;28.50;68.10
56103;DHT22;41970;48.774;9.280;2022-08-01T11:58:07;28.70;66.90
56103;DHT22;41970;48.774;9.280;2022-08-01T12:00:34;28.70;66.50
56103;DHT22;41970;48.774;9.280;2022-08-01T12:03:05;28.80;66.80
56103;DHT22;41970;48.774;9.280;2022-08-01T12:05:33;28.70;66.50
56103;DHT22;41970;48.774;9.280;2022-08-01T12:08:01;28.80;67.00
56103;DHT22;41970;48.774;9.280;2022-08-01T12:10:30;28.80;66.40
56103;DHT22;41970;48.774;9.280;2022-08-01T12:13:03;28.80;67.10
56103;DHT22;41970;48.774;9.280;2022-08-01T12:15:31;28.80;66.60
56103;DHT22;41970;48.774;9.280;2022-08-01T12:18:00;28.80;66.20
56103;DHT22;41970;48.774;9.280;2022-08-01T12:20:28;28.80;66.00
56103;DHT22;41970;48.774;9.280;2022-08-01T12:22:56;28.80;66.70
56103;DHT22;41970;48.774;9.280;2022-08-01T12:25:23;28.80;66.20
56103;DHT22;41970;48.774;9.280;2022-08-01T12:27:50;28.90;65.80
56103;DHT22;41970;48.774;9.280;2022-08-01T12:30:18;29.00;65.70
56103;DHT22;41970;48.774;9.280;2022-08-01T12:32:46;29.00;65.60
56103;DHT22;41970;48.774;9.280;2022-08-01T12:35:18;28.90;65.30
56103;DHT22;41970;48.774;9.280;2022-08-01T12:37:49;29.00;65.70
56103;DHT22;41970;48.774;9.280;2022-08-01T12:40:20;29.00;65.30
56103;DHT22;41970;48.774;9.280;2022-08-01T12:42:48;29.00;65.60
56103;DHT22;41970;48.774;9.280;2022-08-01T12:45:17;29.10;65.40
56103;DHT22;41970;48.774;9.280;2022-08-01T12:47:44;29.10;64.40
56103;DHT22;41970;48.774;9.280;2022-08-01T12:50:14;29.10;63.90
56103;DHT22;41970;48.774;9.280;2022-08-01T12:52:41;29.00;65.00
56103;DHT22;41970;48.774;9.280;2022-08-01T12:55:18;28.80;65.60
56103;DHT22;41970;48.774;9.280;2022-08-01T12:57:47;28.70;65.60
56103;DHT22;41970;48.774;9.280;2022-08-01T13:00:25;28.70;66.10
56103;DHT22;41970;48.774;9.280;2022-08-01T13:03:21;28.70;66.20
56103;DHT22;41970;48.774;9.280;2022-08-01T13:05:50;28.80;67.10
56103;DHT22;41970;48.774;9.280;2022-08-01T13:10:47;28.90;67.00
56103;DHT22;41970;48.774;9.280;2022-08-01T13:13:14;29.00;65.50
56103;DHT22;41970;48.774;9.280;2022-08-01T13:15:42;29.00;66.40
56103;DHT22;41970;48.774;9.280;2022-08-01T13:18:31;28.90;65.30
56103;DHT22;41970;48.774;9.280;2022-08-01T13:21:18;28.90;65.90
56103;DHT22;41970;48.774;9.280;2022-08-01T13:24:09;29.00;65.70
56103;DHT22;41970;48.774;9.280;2022-08-01T13:26:51;29.20;64.50
56103;DHT22;41970;48.774;9.280;2022-08-01T13:29:28;29.20;63.90
56103;DHT22;41970;48.774;9.280;2022-08-01T13:31:54;29.20;64.10
56103;DHT22;41970;48.774;9.280;2022-08-01T13:34:33;29.20;63.90
56103;DHT22;41970;48.774;9.280;2022-08-01T13:36:59;29.20;64.20
56103;DHT22;41970;48.774;9.280;2022-08-01T13:39:28;28.90;64.90
56103;DHT22;41970;48.774;9.280;2022-08-01T13:42:13;28.90;65.40
56103;DHT22;41970;48.774;9.280;2022-08-01T13:44:40;29.00;65.40
56103;DHT22;41970;48.774;9.280;2022-08-01T13:47:07;29.00;65.10
56103;DHT22;41970;48.774;9.280;2022-08-01T13:49:33;29.20;64.90
56103;DHT22;41970;48.774;9.280;2022-08-01T13:51:59;29.30;64.70
56103;DHT22;41970;48.774;9.280;2022-08-01T13:54:25;29.50;64.20
56103;DHT22;41970;48.774;9.280;2022-08-01T13:56:52;29.40;63.50
56103;DHT22;41970;48.774;9.280;2022-08-01T13:59:19;29.20;64.00
56103;DHT22;41970;48.774;9.280;2022-08-01T14:01:45;29.20;63.90
56103;DHT22;41970;48.774;9.280;2022-08-01T14:04:12;29.20;64.30
56103;DHT22;41970;48.774;9.280;2022-08-01T14:06:38;29.50;63.60
56103;DHT22;41970;48.774;9.280;2022-08-01T14:09:05;29.70;63.50
56103;DHT22;41970;48.774;9.280;2022-08-01T14:11:31;29.80;63.20
56103;DHT22;41970;48.774;9.280;2022-08-01T14:13:57;29.70;63.40
56103;DHT22;41970;48.774;9.280;2022-08-01T14:16:24;29.60;63.10
56103;DHT22;41970;48.774;9.280;2022-08-01T14:18:50;29.40;63.90
56103;DHT22;41970;48.774;9.280;2022-08-01T14:21:16;29.30;64.40
56103;DHT22;41970;48.774;9.280;2022-08-01T14:23:42;29.40;63.90
56103;DHT22;41970;48.774;9.280;2022-08-01T14:26:11;29.60;63.50
56103;DHT22;41970;48.774;9.280;2022-08-01T14:28:37;29.60;63.30
56103;DHT22;41970;48.774;9.280;2022-08-01T14:31:04;29.50;63.10
56103;DHT22;41970;48.774;9.280;2022-08-01T14:33:31;29.50;62.90
56103;DHT22;41970;48.774;9.280;2022-08-01T14:35:57;29.60;63.50
56103;DHT22;41970;48.774;9.280;2022-08-01T14:38:23;29.60;62.90
56103;DHT22;41970;48.774;9.280;2022-08-01T14:40:49;29.50;63.40
56103;DHT22;41970;48.774;9.280;2022-08-01T14:43:19;29.50;63.40
56103;DHT22;41970;48.774;9.280;2022-08-01T14:45:45;29.50;63.10
56103;DHT22;41970;48.774;9.280;2022-08-01T14:48:15;29.40;62.90
56103;DHT22;41970;48.774;9.280;2022-08-01T14:50:41;29.20;63.40
56103;DHT22;41970;48.774;9.280;2022-08-01T14:53:07;29.20;63.50
56103;DHT22;41970;48.774;9.280;2022-08-01T14:55:33;29.30;63.50
56103;DHT22;41970;48.774;9.280;2022-08-01T14:57:59;29.30;63.50
56103;DHT22;41970;48.774;9.280;2022-08-01T15:00:25;29.40;63.50
56103;DHT22;41970;48.774;9.280;2022-08-01T15:02:51;29.60;63.30
56103;DHT22;41970;48.774;9.280;2022-08-01T15:05:16;29.60;63.20
56103;DHT22;41970;48.774;9.280;2022-08-01T15:07:42;29.70;62.70
56103;DHT22;41970;48.774;9.280;2022-08-01T15:10:09;29.70;63.90
56103;DHT22;41970;48.774;9.280;2022-08-01T15:12:35;29.80;62.40
56103;DHT22;41970;48.774;9.280;2022-08-01T15:15:01;29.90;62.20
56103;DHT22;41970;48.774;9.280;2022-08-01T15:17:30;29.90;62.70
56103;DHT22;41970;48.774;9.280;2022-08-01T15:19:59;30.10;61.80
56103;DHT22;41970;48.774;9.280;2022-08-01T15:22:26;30.10;61.60
56103;DHT22;41970;48.774;9.280;2022-08-01T15:24:54;30.10;61.40
56103;DHT22;41970;48.774;9.280;2022-08-01T15:27:21;29.90;60.60
56103;DHT22;41970;48.774;9.280;2022-08-01T15:29:47;29.80;61.20
56103;DHT22;41970;48.774;9.280;2022-08-01T15:32:13;29.80;61.10
56103;DHT22;41970;48.774;9.280;2022-08-01T15:34:40;29.70;61.20
56103;DHT22;41970;48.774;9.280;2022-08-01T15:37:07;29.50;62.30
56103;DHT22;41970;48.774;9.280;2022-08-01T15:39:34;29.50;62.00
56103;DHT22;41970;48.774;9.280;2022-08-01T15:42:08;29.40;61.90
56103;DHT22;41970;48.774;9.280;2022-08-01T15:44:34;29.40;61.80
56103;DHT22;41970;48.774;9.280;2022-08-01T15:47:01;29.30;62.20
56103;DHT22;41970;48.774;9.280;2022-08-01T15:49:29;29.40;62.10
56103;DHT22;41970;48.774;9.280;2022-08-01T15:51:55;29.60;61.40
56103;DHT22;41970;48.774;9.280;2022-08-01T15:54:21;29.40;61.70
56103;DHT22;41970;48.774;9.280;2022-08-01T15:56:47;29.50;61.30
56103;DHT22;41970;48.774;9.280;2022-08-01T15:59:13;29.60;60.90
56103;DHT22;41970;48.774;9.280;2022-08-01T16:01:39;29.60;61.10
56103;DHT22;41970;48.774;9.280;2022-08-01T16:04:06;29.60;61.00
56103;DHT22;41970;48.774;9.280;2022-08-01T16:06:33;29.60;61.40